Morris, IL

2:48 PM CDT on May 27, 2015 (GMT -0500)
Morris Tac-Wx-Ops EW3943 APRS | | Change Station
CLOSE
Current Station
Personal Weather Station
Location: Morris, IL
Elevation: 548 ft
Nearby Weather Stations

Elev 548 ft 41.38 °N, 88.43 °W | Updated 12 seconds ago

Mostly Cloudy
Mostly Cloudy
76.6 °F
Feels Like 78 °F
N
11.9
Wind Variable Wind from ESE
Gusts 17.4 mph

Today
High -- | Low -- °F
--% Chance of Precip.
Yesterday
High -- | Low -- °F
Precip. -- in
5:25 AM 8:16 PM
Waxing Gibbous, 69% visible
Pressure 30.00 in
Visibility 10.0 miles
Clouds Scattered Clouds 4100 ft
Scattered Clouds 5000 ft
Heat Index 78 °F
Dew Point 58 °F
Humidity 52%
Rainfall 0.22 in
Snow Depth Not available.
UV 8.0 out of 12
Pollen 9.20 out of 12
Air Quality Not available.
Flu Activity Sporadic
METAR KC09 271935Z AUTO 30017KT 10SM SCT041 SCT050 24/15 A3000 RMK AO2 T02440147

More Conditions Fewer Conditions

Pressure 30.00 in
Visibility 10.0 miles
Clouds Scattered Clouds 4100 ft
Scattered Clouds 5000 ft
Heat Index 78 °F
Dew Point 58 °F
Humidity 52%
Rainfall 0.22 in
Snow Depth Not available.
UV 8.0 out of 12
Pollen 9.20 out of 12
Air Quality Not available.
Flu Activity Sporadic
METAR KC09 271935Z AUTO 30017KT 10SM SCT041 SCT050 24/15 A3000 RMK AO2 T02440147

More Conditions Fewer Conditions

10-Day Weather Forecast

Almanac

Astronomy

May. 27, 2015 Rise Set
Actual Time
Civil Twilight
Nautical Twilight
Astronomical Twilight
Moon
Length of Visible Light
Length of Day
Tomorrow will be .
, % of the Moon is Illuminated

Today's Extremes

State Highs State Lows

Community

WunderPhotos

Upload Photos

1,824,774 photos uploaded!

WunderBlogs® & News

Nearby

Air Quality

  Air Quality AQ Index Pollutant
Not available.

Snow Depth

Station Depth Elevation

Earthquake Activity

City Distance Mag. Time & Date
Minimum magnitude displayed is 2.5.

Coastal Water Temperatures

Place Temperature

Stations

Nearby Weather Stations

Station Location Temp. Windchill Dew Point Humidity Wind Precip. Elev Updated Type